Time;durP1;ratioP1;P1;durP2;ratioP2;P2;SDS_P1;SDS_P2;PMS_P1;PMS_P2;Temp;Humidity;BMP_temperature;BMP_pressure;BME280_temperature;BME280_humidity;BME280_pressure;Samples;Min_cycle;Max_cycle;Signal;HPM_P1;HPM_P2
2021/07/06 00:01:58;;;;;;;5.13;4.63;;;;;;;22.12;76.96;99952.44;4927218;28;103339;-84
2021/07/06 00:04:25;;;;;;;5.60;5.10;;;;;;;22.12;76.85;99962.72;4923648;28;102625;-84
2021/07/06 00:06:51;;;;;;;5.28;4.78;;;;;;;22.09;76.86;99947.63;4911331;28;102659;-84
2021/07/06 00:09:18;;;;;;;5.28;4.88;;;;;;;22.11;76.78;99950.84;4910555;28;104223;-84
2021/07/06 00:11:46;;;;;;;5.63;5.22;;;;;;;22.12;76.96;99957.19;4912560;28;102406;-84
2021/07/06 00:14:13;;;;;;;5.50;4.95;;;;;;;22.11;76.92;99950.84;4911758;28;102494;-84
2021/07/06 00:16:39;;;;;;;5.43;4.93;;;;;;;22.12;76.81;99957.19;4903707;28;102593;-85
2021/07/06 00:19:06;;;;;;;5.55;5.15;;;;;;;22.10;76.94;99960.31;4911497;28;103776;-84
2021/07/06 00:21:33;;;;;;;5.78;5.22;;;;;;;22.09;76.84;99947.63;4897312;28;102987;-84
2021/07/06 00:23:59;;;;;;;5.75;5.20;;;;;;;22.10;76.90;99959.50;4896704;28;102505;-84
2021/07/06 00:26:26;;;;;;;5.50;5.10;;;;;;;22.09;76.88;99961.50;4924490;28;102683;-89
2021/07/06 00:28:54;;;;;;;5.50;5.03;;;;;;;22.11;76.73;99961.94;4891563;28;103834;-91
2021/07/06 00:31:21;;;;;;;5.65;5.00;;;;;;;22.11;76.80;99955.56;4890044;28;102426;-91
2021/07/06 00:33:49;;;;;;;4.95;4.65;;;;;;;22.10;76.81;99953.97;4886293;28;102329;-91
2021/07/06 00:36:16;;;;;;;5.30;4.90;;;;;;;22.12;76.87;99962.72;4895024;28;102627;-91
2021/07/06 00:38:43;;;;;;;5.82;5.22;;;;;;;22.10;76.80;99959.50;4889287;28;103471;-92
2021/07/06 00:41:10;;;;;;;5.30;4.75;;;;;;;22.10;77.18;99971.41;4916536;28;102481;-92
2021/07/06 00:43:37;;;;;;;5.55;5.05;;;;;;;22.10;76.77;99971.41;4918525;28;102746;-92
2021/07/06 00:46:06;;;;;;;5.30;4.80;;;;;;;22.08;76.77;99970.97;4891387;28;102557;-92
2021/07/06 00:48:33;;;;;;;5.40;5.00;;;;;;;22.08;77.01;99974.53;4886502;28;104501;-93
2021/07/06 00:51:01;;;;;;;5.28;4.78;;;;;;;22.09;76.81;99964.25;4954722;28;102554;-92
2021/07/06 00:53:27;;;;;;;5.20;4.80;;;;;;;22.09;76.92;99972.56;4895496;28;102094;-92
2021/07/06 00:55:56;;;;;;;5.18;4.82;;;;;;;22.10;76.79;99971.41;4921898;28;102881;-92
2021/07/06 00:58:25;;;;;;;5.60;4.97;;;;;;;22.10;76.73;99971.41;4906107;28;104237;-92
2021/07/06 01:00:51;;;;;;;5.60;5.10;;;;;;;22.08;76.97;99963.47;4890743;28;103012;-92
2021/07/06 01:03:20;;;;;;;4.97;4.57;;;;;;;22.10;76.94;99974.16;4895450;28;102627;-92
2021/07/06 01:05:47;;;;;;;;;;;;;;;22.10;76.78;99971.41;4898834;28;102161;-92
2021/07/06 01:08:13;;;;;;;5.32;4.93;;;;;;;22.11;76.71;99964.72;4887328;28;104257;-93
2021/07/06 01:10:40;;;;;;;5.15;4.75;;;;;;;22.10;76.70;99965.84;4934808;28;102750;-93
2021/07/06 01:13:08;;;;;;;5.22;4.82;;;;;;;22.08;76.88;99973.75;4903430;28;102656;-93
2021/07/06 01:15:36;;;;;;;5.32;4.82;;;;;;;22.07;76.95;99963.84;4906708;28;102447;-96
2021/07/06 01:18:05;;;;;;;5.10;4.70;;;;;;;22.09;76.83;99967.03;4879821;28;102266;-96
2021/07/06 01:20:35;;;;;;;5.05;4.65;;;;;;;22.08;77.03;99965.44;4902838;28;101645;-96
2021/07/06 01:23:05;;;;;;;5.20;4.70;;;;;;;22.06;76.85;99962.22;4907371;28;101280;-96
2021/07/06 01:25:32;;;;;;;4.53;4.18;;;;;;;22.04;77.03;99968.13;4910435;28;102310;-87
2021/07/06 01:28:01;;;;;;;5.70;5.20;;;;;;;22.06;76.94;99965.78;4888414;28;103939;-85
2021/07/06 01:30:28;;;;;;;5.57;5.07;;;;;;;22.05;77.19;99969.72;4925204;28;102255;-84
2021/07/06 01:32:55;;;;;;;5.05;4.65;;;;;;;22.05;76.80;99971.72;4903364;28;102545;-85
2021/07/06 01:35:23;;;;;;;;;;;;;;;22.06;76.80;99971.31;4894568;28;103073;-85
2021/07/06 01:37:53;;;;;;;5.15;4.75;;;;;;;22.05;76.86;99966.97;4931636;28;103282;-88
2021/07/06 01:40:28;;;;;;;5.45;5.03;;;;;;;22.05;77.15;99968.94;4914965;28;102722;-88
2021/07/06 01:42:58;;;;;;;5.35;4.95;;;;;;;22.04;76.88;99968.13;4891357;28;102210;-88
2021/07/06 01:45:29;;;;;;;5.30;4.90;;;;;;;22.04;76.95;99968.13;4875657;28;102286;-88
2021/07/06 01:47:59;;;;;;;5.18;4.78;;;;;;;22.07;76.89;99972.16;4879677;28;104655;-88
2021/07/06 01:50:33;;;;;;;5.30;4.80;;;;;;;22.06;76.92;99973.31;4915940;28;102602;-88
2021/07/06 01:53:01;;;;;;;9.27;5.57;;;;;;;22.04;76.81;99973.69;4871471;28;102359;-88
2021/07/06 01:55:35;;;;;;;5.25;4.72;;;;;;;22.05;76.90;99974.47;4889201;28;102682;-85
2021/07/06 01:58:04;;;;;;;4.88;4.47;;;;;;;22.07;76.91;99972.16;4892822;28;104119;-86
2021/07/06 02:00:34;;;;;;;5.50;5.00;;;;;;;22.03;76.94;99971.25;4898850;28;103094;-86
2021/07/06 02:03:01;;;;;;;6.68;4.63;;;;;;;22.03;77.05;99976.81;4888697;28;102436;-85
2021/07/06 02:05:30;;;;;;;5.32;4.93;;;;;;;22.05;76.96;99974.47;4891467;28;102410;-85
2021/07/06 02:07:57;;;;;;;5.30;4.85;;;;;;;22.04;76.97;99968.13;4887909;28;103637;-85
2021/07/06 02:10:25;;;;;;;5.43;4.93;;;;;;;22.05;76.98;99974.47;4896749;28;103029;-85
2021/07/06 02:12:54;;;;;;;5.80;4.77;;;;;;;22.06;76.97;99970.53;4907764;28;102349;-85
2021/07/06 02:15:20;;;;;;;5.53;5.03;;;;;;;22.04;77.00;99982.00;4899431;28;102731;-85
2021/07/06 02:17:48;;;;;;;5.00;4.57;;;;;;;22.03;77.08;99976.81;4886723;28;104324;-85
2021/07/06 02:20:17;;;;;;;5.30;4.90;;;;;;;22.05;76.96;99977.25;4895379;28;102568;-85
2021/07/06 02:22:46;;;;;;;;;;;;;;;22.03;77.05;99985.13;4888498;28;102038;-85
2021/07/06 02:25:16;;;;;;;5.55;5.15;;;;;;;22.05;76.91;99985.56;4912901;28;102427;-85
2021/07/06 02:27:45;;;;;;;4.72;4.32;;;;;;;22.04;77.01;99989.50;4888384;28;104335;-84
2021/07/06 02:30:15;;;;;;;5.15;4.75;;;;;;;22.06;76.90;99989.94;4895073;28;102274;-85
2021/07/06 02:32:42;;;;;;;5.47;4.97;;;;;;;22.06;77.11;99987.16;4888116;28;103512;-84
2021/07/06 02:35:10;;;;;;;5.15;4.75;;;;;;;22.05;76.70;99991.09;4888988;28;102316;-85
2021/07/06 02:37:37;;;;;;;5.10;4.60;;;;;;;22.04;76.83;99997.81;4893888;28;102704;-85
2021/07/06 02:40:05;;;;;;;5.40;5.00;;;;;;;22.05;76.76;99993.88;4894699;28;102367;-92
2021/07/06 02:42:32;;;;;;;5.07;4.68;;;;;;;22.05;77.05;99991.91;4894347;28;101831;-93
2021/07/06 02:44:59;;;;;;;5.50;5.00;;;;;;;22.04;76.93;100001.38;4890612;28;102702;-93
2021/07/06 02:47:27;;;;;;;5.57;5.18;;;;;;;22.05;76.92;100007.72;4893296;28;104117;-94
2021/07/06 02:49:54;;;;;;;5.40;4.90;;;;;;;22.03;76.96;100012.81;4889968;28;102481;-95
2021/07/06 02:52:20;;;;;;;5.68;5.18;;;;;;;22.04;76.90;100000.59;4889159;28;102208;-93
2021/07/06 02:54:47;;;;;;;4.65;4.35;;;;;;;22.04;76.87;100011.69;4931061;28;102736;-93
2021/07/06 02:57:34;;;;;;;5.50;5.10;;;;;;;22.04;76.78;100017.22;4891636;28;103222;-94
2021/07/06 03:00:04;;;;;;;6.15;5.55;;;;;;;22.04;76.82;100011.69;4909594;28;102505;-85
2021/07/06 03:02:32;;;;;;;5.88;5.25;;;;;;;22.04;76.98;100017.22;4932070;28;104690;-85
2021/07/06 03:04:59;;;;;;;5.22;4.72;;;;;;;22.03;77.03;100019.19;4899812;28;102631;-84
2021/07/06 03:07:28;;;;;;;4.82;4.43;;;;;;;22.02;77.05;100022.31;4903839;28;102698;-85
2021/07/06 03:09:54;;;;;;;5.82;5.13;;;;;;;22.04;77.01;100025.53;4940835;28;102582;-85
2021/07/06 03:12:21;;;;;;;7.30;5.30;;;;;;;22.05;76.92;100027.13;4894556;28;102235;-83
2021/07/06 03:14:47;;;;;;;5.57;5.07;;;;;;;22.05;76.74;100038.22;4921268;28;102920;-83
2021/07/06 03:17:15;;;;;;;5.80;5.20;;;;;;;22.04;77.00;100033.84;4901653;28;103893;-83
2021/07/06 03:19:43;;;;;;;5.75;5.15;;;;;;;22.04;76.74;100033.84;4891736;28;102331;-83
2021/07/06 03:22:10;;;;;;;6.82;5.43;;;;;;;22.04;76.94;100033.84;4915977;28;102177;-83
2021/07/06 03:24:37;;;;;;;5.47;5.07;;;;;;;22.02;77.12;100030.63;4904211;28;102289;-83
2021/07/06 03:27:04;;;;;;;5.82;5.35;;;;;;;22.01;77.00;100029.81;4890282;28;102420;-82
2021/07/06 03:29:51;;;;;;;5.72;5.28;;;;;;;22.01;77.16;100029.03;4900794;28;102622;-83
2021/07/06 03:32:37;;;;;;;5.75;5.25;;;;;;;22.02;76.92;100027.84;4908054;28;102100;-83
2021/07/06 03:35:08;;;;;;;5.47;5.07;;;;;;;22.05;76.87;100035.44;4941451;28;102303;-84
2021/07/06 03:37:35;;;;;;;5.50;5.00;;;;;;;22.04;76.78;100031.88;4898508;28;102977;-84
2021/07/06 03:40:22;;;;;;;5.68;5.18;;;;;;;22.04;77.11;100033.84;4920173;28;102596;-84
2021/07/06 03:42:49;;;;;;;6.05;5.47;;;;;;;22.03;76.90;100032.22;4899473;28;102626;-84
2021/07/06 03:45:16;;;;;;;5.88;5.38;;;;;;;22.04;76.89;100039.38;4901224;28;102319;-84
2021/07/06 03:47:43;;;;;;;5.60;5.20;;;;;;;22.05;76.78;100047.31;4952076;28;103896;-84
2021/07/06 03:50:18;;;;;;;6.00;5.40;;;;;;;22.05;76.89;100052.06;4944958;28;102418;-84
2021/07/06 03:52:45;;;;;;;5.07;4.70;;;;;;;22.06;76.79;100057.22;4904161;28;102342;-84
2021/07/06 03:55:13;;;;;;;6.75;5.47;;;;;;;22.07;76.68;100049.75;4891764;28;102773;-84
2021/07/06 03:57:40;;;;;;;5.75;5.25;;;;;;;22.06;76.62;100043.38;4908159;28;103927;-84
2021/07/06 04:00:09;;;;;;;5.45;4.95;;;;;;;22.04;76.86;100056.81;4894709;28;102462;-84
2021/07/06 04:02:36;;;;;;;6.07;5.60;;;;;;;22.05;76.70;100063.16;4886834;28;102443;-84
2021/07/06 04:05:03;;;;;;;5.57;5.10;;;;;;;22.05;76.72;100063.16;4940417;28;102081;-85
2021/07/06 04:07:31;;;;;;;5.85;5.35;;;;;;;22.04;76.84;100064.31;4897640;28;102838;-84
2021/07/06 04:09:58;;;;;;;5.82;5.30;;;;;;;22.04;76.86;100065.13;4898485;28;102561;-84
2021/07/06 04:12:25;;;;;;;5.78;5.32;;;;;;;22.04;76.76;100065.13;4899010;28;102283;-83
2021/07/06 04:14:56;;;;;;;6.05;5.45;;;;;;;22.06;76.81;100070.28;4907673;28;103189;-83
2021/07/06 04:17:23;;;;;;;5.32;4.93;;;;;;;22.06;76.80;100070.28;4938231;28;103821;-83
2021/07/06 04:19:50;;;;;;;5.72;5.30;;;;;;;22.07;76.71;100072.69;4903482;28;102448;-89
2021/07/06 04:22:16;;;;;;;6.22;5.63;;;;;;;22.07;76.58;100078.25;4889729;28;102088;-90
2021/07/06 04:24:45;;;;;;;6.07;5.57;;;;;;;22.08;76.81;100081.81;4925924;28;102554;-88
2021/07/06 04:27:11;;;;;;;6.47;5.88;;;;;;;22.08;76.71;100085.38;4893331;28;104166;-88
2021/07/06 04:29:38;;;;;;;5.80;5.30;;;;;;;22.08;76.73;100084.59;4892898;28;102318;-88
2021/07/06 04:32:05;;;;;;;6.30;5.80;;;;;;;22.07;76.79;100089.34;4894753;28;102499;-88
2021/07/06 04:34:31;;;;;;;5.93;5.43;;;;;;;22.07;76.79;100083.78;4900616;28;103186;-89
2021/07/06 04:37:04;;;;;;;5.93;5.43;;;;;;;22.08;76.69;100081.81;4888334;28;103998;-83
2021/07/06 04:39:31;;;;;;;6.38;5.88;;;;;;;22.07;76.76;100078.25;4904314;28;102344;-83
2021/07/06 04:41:59;;;;;;;5.85;5.35;;;;;;;22.07;76.67;100078.25;4890433;28;102142;-83
2021/07/06 04:44:26;;;;;;;6.27;5.70;;;;;;;22.09;76.58;100088.94;4894708;28;102161;-83
2021/07/06 04:46:52;;;;;;;6.18;5.57;;;;;;;22.09;76.70;100086.19;4890279;28;103385;-83
2021/07/06 04:49:19;;;;;;;7.25;5.80;;;;;;;22.09;76.60;100088.94;4903087;28;102267;-83
2021/07/06 04:51:45;;;;;;;6.68;5.90;;;;;;;22.09;76.68;100080.63;4906705;28;102118;-83
2021/07/06 04:54:12;;;;;;;6.03;5.57;;;;;;;22.09;76.84;100088.94;4900274;28;103205;-87
2021/07/06 04:56:38;;;;;;;7.13;6.07;;;;;;;22.08;76.75;100088.16;4893847;28;103322;-87
2021/07/06 04:59:07;;;;;;;6.45;5.82;;;;;;;22.09;76.76;100086.19;4892650;28;102458;-86
2021/07/06 05:01:33;;;;;;;6.50;5.95;;;;;;;22.09;76.63;100094.50;4893027;28;102291;-87
2021/07/06 05:04:01;;;;;;;5.93;5.43;;;;;;;22.09;76.67;100091.72;4917017;28;102118;-87
2021/07/06 05:06:28;;;;;;;6.50;6.00;;;;;;;22.09;76.70;100105.56;4892315;28;103720;-87
2021/07/06 05:08:54;;;;;;;6.60;6.10;;;;;;;22.09;76.56;100111.13;4897694;28;102543;-87
2021/07/06 05:11:22;;;;;;;6.10;5.60;;;;;;;22.10;76.70;100117.47;4923716;28;102348;-87
2021/07/06 05:13:51;;;;;;;7.28;6.30;;;;;;;22.09;76.59;100113.91;4904126;28;102511;-87
2021/07/06 05:16:19;;;;;;;6.95;6.20;;;;;;;22.10;76.75;100117.47;4889300;28;105799;-86
2021/07/06 05:18:46;;;;;;;5.88;5.47;;;;;;;22.07;76.79;100121.78;4894667;28;102846;-87
2021/07/06 05:21:12;;;;;;;6.97;6.10;;;;;;;22.09;76.73;100124.97;4886444;28;102853;-87
2021/07/06 05:23:39;;;;;;;7.45;6.30;;;;;;;22.10;76.72;100132.13;4889103;28;102732;-87
2021/07/06 05:26:06;;;;;;;6.65;6.07;;;;;;;22.10;76.73;100120.22;4887285;28;102800;-87
2021/07/06 05:28:33;;;;;;;6.75;6.15;;;;;;;22.09;76.85;100122.22;4908454;28;103329;-91
2021/07/06 05:31:01;;;;;;;6.60;6.00;;;;;;;22.08;76.62;100124.19;4893515;28;102616;-91
2021/07/06 05:33:29;;;;;;;7.20;6.30;;;;;;;22.10;76.89;100131.31;4909777;28;102821;-83
2021/07/06 05:35:56;;;;;;;9.20;7.00;;;;;;;22.10;76.71;100125.78;4898419;28;102740;-83
2021/07/06 05:38:22;;;;;;;6.80;6.20;;;;;;;22.09;76.72;100124.97;4889905;28;102137;-84
2021/07/06 05:40:55;;;;;;;7.40;6.70;;;;;;;22.10;76.80;100128.53;4894067;28;102608;-84
2021/07/06 05:43:23;;;;;;;7.43;6.72;;;;;;;22.11;76.78;100132.91;4894993;28;102697;-83
2021/07/06 05:45:50;;;;;;;7.78;7.07;;;;;;;22.08;76.67;100134.47;4888603;28;102812;-83
2021/07/06 05:48:18;;;;;;;7.65;6.97;;;;;;;22.10;76.79;100131.31;4889409;28;102508;-84
2021/07/06 05:50:46;;;;;;;7.20;6.60;;;;;;;22.10;76.70;100143.19;4899620;28;102241;-83
2021/07/06 05:53:13;;;;;;;7.20;6.60;;;;;;;22.10;76.70;100139.63;4890697;28;102452;-84
2021/07/06 05:55:40;;;;;;;7.20;6.60;;;;;;;22.09;76.85;100141.59;4907173;28;103840;-84
2021/07/06 05:58:06;;;;;;;7.80;7.10;;;;;;;22.10;76.72;100148.75;4912429;28;102122;-83
2021/07/06 06:00:34;;;;;;;7.20;6.60;;;;;;;22.10;76.77;100145.97;4887425;28;102272;-83
2021/07/06 06:03:01;;;;;;;8.10;7.32;;;;;;;22.10;76.93;100154.28;4887821;28;102211;-83
2021/07/06 06:05:27;;;;;;;7.35;6.57;;;;;;;22.08;76.61;100151.88;4928529;28;103257;-83
2021/07/06 06:07:55;;;;;;;7.55;6.82;;;;;;;22.10;76.81;100161.78;4881825;28;102086;-83
2021/07/06 06:10:22;;;;;;;7.90;7.20;;;;;;;22.10;76.75;100165.38;4888164;28;102106;-83
2021/07/06 06:12:48;;;;;;;7.68;6.90;;;;;;;22.11;76.65;100167.00;4910525;28;102539;-83
2021/07/06 06:15:15;;;;;;;7.85;7.15;;;;;;;22.10;76.69;100159.81;4899025;28;104146;-83
2021/07/06 06:17:42;;;;;;;8.25;7.60;;;;;;;22.10;76.58;100168.13;4891555;28;102572;-83
2021/07/06 06:20:10;;;;;;;7.72;7.13;;;;;;;22.11;76.66;100166.16;4907154;28;102432;-83
2021/07/06 06:22:36;;;;;;;7.80;7.05;;;;;;;22.11;76.78;100166.16;4894096;28;102867;-83
2021/07/06 06:25:08;;;;;;;8.30;7.65;;;;;;;22.10;76.53;100170.91;4883762;28;104155;-83
2021/07/06 06:27:34;;;;;;;8.80;8.02;;;;;;;22.10;76.71;100165.38;4894766;28;103318;-83
2021/07/06 06:30:02;;;;;;;8.70;7.95;;;;;;;22.09;76.70;100166.53;4885874;28;102541;-83
2021/07/06 06:32:28;;;;;;;9.50;7.85;;;;;;;22.10;76.66;100165.38;4898902;28;102624;-84
2021/07/06 06:34:56;;;;;;;9.05;8.23;;;;;;;22.11;76.73;100174.47;4893730;28;102486;-82
2021/07/06 06:37:23;;;;;;;8.00;7.30;;;;;;;22.10;76.80;100170.91;4896120;28;102476;-83
2021/07/06 06:39:49;;;;;;;10.15;8.45;;;;;;;22.10;76.92;100170.91;4901784;28;102319;-83
2021/07/06 06:42:17;;;;;;;8.52;7.72;;;;;;;22.11;76.78;100164.22;4895716;28;102625;-82
2021/07/06 06:44:44;;;;;;;8.75;8.00;;;;;;;22.11;76.88;100166.16;4894304;28;103738;-83
2021/07/06 06:47:11;;;;;;;8.85;7.88;;;;;;;22.11;76.81;100172.53;4895217;28;103596;-85
2021/07/06 06:49:38;;;;;;;8.93;8.18;;;;;;;22.11;76.86;100169.78;4899270;28;102532;-83
2021/07/06 06:52:06;;;;;;;8.68;7.97;;;;;;;22.12;76.40;100174.13;4898897;28;102634;-82
2021/07/06 06:54:34;;;;;;;9.10;8.30;;;;;;;22.12;76.79;100176.91;4891753;28;103368;-82
2021/07/06 06:57:01;;;;;;;9.03;8.23;;;;;;;22.12;76.67;100174.13;4899796;28;103646;-82
2021/07/06 06:59:30;;;;;;;8.43;7.73;;;;;;;22.11;76.50;100180.84;4900917;28;102473;-82
2021/07/06 07:04:42;;;;;;;9.65;8.80;;;;;;;22.13;76.72;100186.81;4891241;28;103402;-82
2021/07/06 07:07:08;;;;;;;9.90;9.00;;;;;;;22.13;76.74;100186.81;4898604;28;102473;-81
2021/07/06 07:09:35;;;;;;;10.40;9.52;;;;;;;22.12;76.71;100179.69;4916710;28;102312;-82
2021/07/06 07:12:02;;;;;;;10.43;9.52;;;;;;;22.13;76.60;100188.78;4917506;28;102243;-82
2021/07/06 07:14:33;;;;;;;10.38;9.48;;;;;;;22.13;76.83;100189.59;4890535;28;104079;-82
2021/07/06 07:17:00;;;;;;;10.82;9.80;;;;;;;22.13;76.66;100183.25;4897194;28;102343;-82
2021/07/06 07:19:27;;;;;;;10.63;9.73;;;;;;;22.13;76.74;100181.28;4910722;28;102835;-82
2021/07/06 07:21:54;;;;;;;10.98;10.02;;;;;;;22.14;76.64;100180.13;4897070;28;102399;-82
2021/07/06 07:24:20;;;;;;;11.18;10.07;;;;;;;22.14;76.65;100182.91;4917829;28;103110;-82
2021/07/06 07:26:47;;;;;;;10.82;9.93;;;;;;;22.14;76.69;100180.13;4891370;28;102505;-82
2021/07/06 07:29:16;;;;;;;11.30;10.30;;;;;;;22.15;76.64;100179.00;4914393;28;104095;-83
2021/07/06 07:31:44;;;;;;;11.75;10.65;;;;;;;22.15;76.74;100167.09;4899174;28;102372;-82
2021/07/06 07:34:11;;;;;;;12.70;11.43;;;;;;;22.15;76.79;100170.69;4907566;28;102680;-82
2021/07/06 07:36:41;;;;;;;12.15;11.15;;;;;;;22.17;76.46;100179.41;4930443;28;102329;-82
2021/07/06 07:39:08;;;;;;;;;;;;;;;22.18;76.70;100171.91;4905137;28;102625;-82
2021/07/06 07:41:35;;;;;;;12.25;11.15;;;;;;;22.18;76.53;100183.81;4902093;28;102324;-82
2021/07/06 07:44:02;;;;;;;12.20;11.15;;;;;;;22.17;76.68;100176.63;4891198;28;104207;-81
2021/07/06 07:46:30;;;;;;;13.10;11.90;;;;;;;22.18;76.64;100181.03;4889592;28;102356;-82
2021/07/06 07:48:58;;;;;;;12.02;11.02;;;;;;;22.18;76.69;100177.44;4891014;28;102660;-82
2021/07/06 07:51:41;;;;;;;13.10;11.90;;;;;;;22.17;76.51;100187.72;4902702;28;103406;-82
2021/07/06 07:54:08;;;;;;;12.43;11.32;;;;;;;22.18;76.46;100189.34;4892930;28;103991;-82
2021/07/06 07:56:35;;;;;;;13.10;11.95;;;;;;;22.18;76.51;100194.91;4898613;28;103885;-82
2021/07/06 07:59:01;;;;;;;12.65;11.65;;;;;;;22.18;76.51;100196.84;4903860;28;102370;-82
2021/07/06 08:01:28;;;;;;;13.55;12.38;;;;;;;22.21;76.50;100199.69;4925015;28;103588;-82
2021/07/06 08:03:54;;;;;;;12.82;11.80;;;;;;;22.21;76.42;100201.66;4920756;28;103407;-82
2021/07/06 08:06:23;;;;;;;13.32;11.93;;;;;;;22.21;76.50;100207.19;4906304;28;102450;-82
2021/07/06 08:09:05;;;;;;;13.63;12.32;;;;;;;22.23;76.34;100204.88;4900493;28;102285;-82
2021/07/06 08:11:32;;;;;;;13.60;12.50;;;;;;;22.25;76.47;100205.31;4909273;28;102707;-82
2021/07/06 08:14:01;;;;;;;13.27;12.27;;;;;;;22.25;76.50;100211.69;4897764;28;103876;-82
2021/07/06 08:16:28;;;;;;;14.07;12.88;;;;;;;22.27;76.29;100214.06;4898034;28;106676;-82
2021/07/06 08:18:55;;;;;;;12.80;11.70;;;;;;;22.26;76.40;100204.97;4892837;28;102334;-82
2021/07/06 08:21:23;;;;;;;13.52;12.23;;;;;;;22.28;76.21;100213.69;4899142;28;102422;-82
2021/07/06 08:23:50;;;;;;;14.77;13.23;;;;;;;22.27;76.32;100206.56;4898217;28;103908;-82
2021/07/06 08:26:17;;;;;;;13.02;11.93;;;;;;;22.28;76.19;100204.59;4916764;28;102576;-82
2021/07/06 08:28:45;;;;;;;12.68;11.68;;;;;;;22.28;76.22;100213.69;4904051;28;102304;-81
2021/07/06 08:31:12;;;;;;;13.45;12.15;;;;;;;22.28;76.31;100210.94;4899319;28;102619;-82
2021/07/06 08:33:38;;;;;;;13.18;12.15;;;;;;;22.29;76.20;100218.09;4901288;28;102909;-82
2021/07/06 08:36:05;;;;;;;13.32;12.23;;;;;;;22.30;76.07;100214.16;4887525;28;102779;-81
2021/07/06 08:38:38;;;;;;;13.85;12.75;;;;;;;22.31;76.11;100210.22;4913354;28;103222;-82
2021/07/06 08:41:05;;;;;;;13.90;12.75;;;;;;;22.34;76.23;100213.44;4926402;28;104627;-82
2021/07/06 08:43:33;;;;;;;13.10;12.00;;;;;;;22.35;75.90;100223.34;4908344;28;102792;-82
2021/07/06 08:46:01;;;;;;;13.93;12.75;;;;;;;22.34;76.05;100218.97;4922036;28;102066;-83
2021/07/06 08:48:31;;;;;;;13.60;12.50;;;;;;;22.35;76.07;100223.34;4890856;28;102476;-82
2021/07/06 08:51:00;;;;;;;13.68;12.48;;;;;;;22.35;76.16;100226.13;4917099;28;102681;-82
2021/07/06 08:53:28;;;;;;;13.55;12.45;;;;;;;22.33;76.17;100223.72;4927137;28;103967;-82
2021/07/06 08:55:58;;;;;;;13.70;12.60;;;;;;;22.33;76.13;100229.28;4897334;28;102149;-82
2021/07/06 08:58:25;;;;;;;13.43;12.32;;;;;;;22.33;75.99;100234.00;4895775;28;102477;-82
2021/07/06 09:00:52;;;;;;;13.65;12.45;;;;;;;22.33;76.21;100234.81;4895644;28;102446;-82
2021/07/06 09:03:18;;;;;;;14.00;12.90;;;;;;;22.31;76.27;100232.38;4931238;28;102266;-83
2021/07/06 09:05:45;;;;;;;13.98;12.80;;;;;;;22.31;76.20;100242.69;4905778;28;102202;-83
2021/07/06 09:08:17;;;;;;;14.38;13.18;;;;;;;22.31;76.18;100237.13;4925244;28;102443;-82
2021/07/06 09:10:44;;;;;;;14.20;13.02;;;;;;;22.29;76.29;100234.75;4966053;28;101273;-82
2021/07/06 09:13:24;;;;;;;14.05;12.95;;;;;;;22.30;76.26;100236.34;4892640;28;103065;-82
2021/07/06 09:15:56;;;;;;;14.95;13.63;;;;;;;22.30;76.29;100244.66;4900715;28;103230;-82
2021/07/06 09:18:29;;;;;;;15.67;14.30;;;;;;;22.33;76.24;100234.00;4892471;28;103518;-82
2021/07/06 09:21:14;;;;;;;14.75;13.40;;;;;;;22.37;76.04;100245.97;4895673;28;102334;-83
2021/07/06 09:23:42;;;;;;;15.02;13.75;;;;;;;22.34;76.10;100238.38;4893000;28;102815;-82
2021/07/06 09:26:12;;;;;;;13.90;12.55;;;;;;;22.34;76.11;100243.94;4899331;28;102344;-81
2021/07/06 09:28:42;;;;;;;15.23;13.93;;;;;;;22.36;76.12;100244.34;4907917;28;102193;-82
2021/07/06 09:31:31;;;;;;;14.13;12.93;;;;;;;22.37;76.06;100240.44;4903702;28;102536;-82
2021/07/06 09:34:02;;;;;;;14.20;13.05;;;;;;;22.35;76.12;100235.25;4893991;28;103404;-82
2021/07/06 09:36:49;;;;;;;16.42;14.80;;;;;;;22.38;76.13;100236.50;4894881;28;103027;-82
2021/07/06 09:39:20;;;;;;;14.80;13.52;;;;;;;22.40;75.94;100237.75;4890158;28;102090;-82
2021/07/06 09:41:58;;;;;;;13.48;12.38;;;;;;;22.39;76.08;100232.53;4904468;28;102225;-83
2021/07/06 09:44:28;;;;;;;14.23;13.13;;;;;;;22.38;76.03;100230.94;4883838;28;104656;-81
2021/07/06 09:46:58;;;;;;;14.40;13.20;;;;;;;22.39;76.01;100235.31;4914821;28;102482;-82
2021/07/06 09:49:27;;;;;;;14.75;13.55;;;;;;;22.37;76.12;100234.91;4896007;28;102726;-81
2021/07/06 09:51:54;;;;;;;14.77;13.57;;;;;;;22.37;75.97;100229.34;4893197;28;103690;-82
2021/07/06 09:54:30;;;;;;;14.80;13.50;;;;;;;22.37;76.10;100234.91;4914922;28;103761;-82
2021/07/06 09:57:19;;;;;;;14.45;13.25;;;;;;;22.38;75.90;100228.16;4883536;28;102610;-82
2021/07/06 10:00:04;;;;;;;14.68;13.38;;;;;;;22.38;75.96;100226.19;4886074;28;102252;-84
2021/07/06 10:02:31;;;;;;;14.52;13.23;;;;;;;22.39;76.10;100232.53;4882794;28;102420;-82
2021/07/06 10:05:03;;;;;;;15.38;14.10;;;;;;;22.37;76.18;100232.91;4895092;28;104840;-82
2021/07/06 10:07:30;;;;;;;15.88;14.52;;;;;;;22.37;76.27;100235.69;4917182;28;102419;-82
2021/07/06 10:09:57;;;;;;;15.60;14.27;;;;;;;22.37;75.86;100235.69;4889370;28;102185;-82
2021/07/06 10:12:25;;;;;;;14.93;13.65;;;;;;;22.37;76.14;100229.34;4894055;28;102649;-82
2021/07/06 10:14:52;;;;;;;14.73;13.52;;;;;;;22.36;76.06;100234.09;4888686;28;103877;-82
2021/07/06 10:17:21;;;;;;;15.18;13.88;;;;;;;22.37;76.18;100240.44;4900020;28;103340;-82
2021/07/06 10:19:48;;;;;;;14.27;13.00;;;;;;;22.38;75.87;100230.94;4881921;28;103282;-81
2021/07/06 10:22:16;;;;;;;15.93;14.52;;;;;;;22.36;76.01;100217.47;4896596;28;102442;-83
2021/07/06 10:24:44;;;;;;;15.67;14.37;;;;;;;22.35;76.13;100224.16;4890115;28;104044;-83
2021/07/06 10:27:16;;;;;;;15.52;14.23;;;;;;;22.36;76.17;100219.41;4903619;28;102581;-83
2021/07/06 10:29:44;;;;;;;15.27;13.98;;;;;;;22.37;76.00;100218.25;4902511;28;102674;-83
2021/07/06 10:32:39;;;;;;;15.82;14.52;;;;;;;22.37;76.17;100223.81;4893623;28;102585;-83
2021/07/06 10:35:08;;;;;;;15.57;14.35;;;;;;;22.37;76.04;100232.13;4882205;28;103317;-83
2021/07/06 10:37:36;;;;;;;15.70;14.40;;;;;;;22.37;76.17;100226.56;4889922;28;102342;-83
2021/07/06 10:40:22;;;;;;;15.40;14.10;;;;;;;22.37;76.10;100227.38;4910487;28;102142;-81
2021/07/06 10:42:50;;;;;;;15.20;14.00;;;;;;;22.37;75.91;100234.91;4891807;28;103048;-83
2021/07/06 10:45:21;;;;;;;15.20;14.00;;;;;;;22.38;76.05;100228.97;4893268;28;103248;-83
2021/07/06 10:48:04;;;;;;;15.40;14.10;;;;;;;22.38;76.14;100225.41;4904601;28;102338;-83
2021/07/06 10:50:51;;;;;;;;;;;;;;;22.38;75.80;100234.50;4904693;28;102707;-83
2021/07/06 10:53:23;;;;;;;15.95;14.68;;;;;;;22.39;75.83;100235.31;4895328;28;102495;-83
2021/07/06 10:56:06;;;;;;;16.35;14.80;;;;;;;22.39;76.10;100238.88;4888221;28;102735;-83
2021/07/06 10:58:52;;;;;;;15.43;14.15;;;;;;;22.38;76.03;100230.94;4882077;28;102680;-82
2021/07/06 11:02:05;;;;;;;15.27;13.98;;;;;;;22.39;76.06;100233.34;4885227;28;102483;-83
2021/07/06 11:05:02;;;;;;;15.63;14.23;;;;;;;22.42;75.89;100237.38;4895895;28;102641;-83
2021/07/06 11:07:56;;;;;;;15.40;14.20;;;;;;;22.43;76.00;100238.97;4888976;28;103187;-83
2021/07/06 11:10:41;;;;;;;15.38;14.07;;;;;;;22.43;75.84;100242.56;4874354;28;102812;-83
2021/07/06 11:13:18;;;;;;;15.85;14.55;;;;;;;22.42;76.01;100245.69;4904077;28;102600;-83
2021/07/06 11:15:46;;;;;;;16.70;15.27;;;;;;;22.40;75.94;100239.72;4893598;28;102151;-83
2021/07/06 11:18:13;;;;;;;15.90;14.50;;;;;;;22.41;76.05;100244.09;4890563;28;102388;-83
2021/07/06 11:20:43;;;;;;;16.10;14.75;;;;;;;22.40;76.00;100245.25;4894770;28;102754;-83
2021/07/06 11:23:15;;;;;;;15.93;14.63;;;;;;;22.40;76.08;100246.06;4895297;28;102698;-83
2021/07/06 11:25:47;;;;;;;16.40;14.93;;;;;;;22.39;76.00;100249.19;4885736;28;102768;-82
2021/07/06 11:28:26;;;;;;;15.65;14.35;;;;;;;22.39;76.10;100249.97;4892318;28;103426;-83